Time,TemperatureF,DewpointF,PressureIn,WindDirection,WindDirectionDegrees,WindSpeedMPH,WindSpeedGustMPH,Humidity,HourlyPrecipIn,Conditions,Clouds,dailyrainin,SolarRadiationWatts/m^2,SoftwareType,DateUTC
2013-08-23 00:00:00,62.3,57.1,29.91,North,-999,4.0,6.0,83,0.00,,,0.00,0.00,VWS V14.01,2013-08-23 06:00:00,
2013-08-23 00:05:00,62.2,57.0,29.91,North,-999,3.0,6.0,83,0.00,,,0.00,0.00,VWS V14.01,2013-08-23 06:05:00,
2013-08-23 00:10:00,62.3,57.1,29.91,North,-999,3.0,5.0,83,0.00,,,0.00,0.00,VWS V14.01,2013-08-23 06:10:00,
2013-08-23 00:15:00,62.8,57.2,29.91,North,-999,0.0,5.0,82,0.00,,,0.00,0.00,VWS V14.01,2013-08-23 06:15:00,
2013-08-23 00:20:00,63.2,57.3,29.91,North,-999,0.0,0.0,81,0.00,,,0.00,0.00,VWS V14.01,2013-08-23 06:20:00,
2013-08-23 00:25:00,63.4,57.1,29.91,North,-999,0.0,0.0,80,0.00,,,0.00,0.00,VWS V14.01,2013-08-23 06:25:00,
2013-08-23 00:30:00,63.4,57.1,29.91,North,-999,0.0,0.0,80,0.00,,,0.00,0.00,VWS V14.01,2013-08-23 06:30:00,
2013-08-23 00:35:00,63.5,57.2,29.90,North,-999,0.0,0.0,80,0.00,,,0.00,0.00,VWS V14.01,2013-08-23 06:35:00,
2013-08-23 00:40:00,63.3,57.0,29.90,North,-999,0.0,0.0,80,0.00,,,0.00,0.00,VWS V14.01,2013-08-23 06:40:00,
2013-08-23 00:45:00,62.9,56.3,29.91,North,-999,0.0,0.0,79,0.00,,,0.00,0.00,VWS V14.01,2013-08-23 06:45:00,
2013-08-23 00:50:00,61.9,56.3,29.91,North,-999,0.0,0.0,82,0.00,,,0.00,0.00,VWS V14.01,2013-08-23 06:50:00,
2013-08-23 00:55:00,61.6,56.7,29.91,North,-999,0.0,0.0,84,0.00,,,0.00,0.00,VWS V14.01,2013-08-23 06:55:00,
2013-08-23 01:00:00,61.5,56.3,29.91,North,-999,0.0,0.0,83,0.00,,,0.00,0.00,VWS V14.01,2013-08-23 07:00:00,
2013-08-23 01:05:00,61.3,55.8,29.91,North,-999,4.0,5.0,82,0.00,,,0.00,0.00,VWS V14.01,2013-08-23 07:05:00,
2013-08-23 01:10:00,61.1,55.9,29.91,North,-999,0.0,5.0,83,0.00,,,0.00,0.00,VWS V14.01,2013-08-23 07:10:00,
2013-08-23 01:15:00,60.6,55.4,29.91,North,-999,0.0,5.0,83,0.00,,,0.00,0.00,VWS V14.01,2013-08-23 07:15:00,
2013-08-23 01:20:00,60.7,55.5,29.91,North,-999,0.0,0.0,83,0.00,,,0.00,0.00,VWS V14.01,2013-08-23 07:20:00,
2013-08-23 01:25:00,60.8,55.9,29.91,North,-999,0.0,0.0,84,0.00,,,0.00,0.00,VWS V14.01,2013-08-23 07:25:00,
2013-08-23 01:30:00,60.9,55.7,29.91,North,-999,0.0,0.0,83,0.00,,,0.00,0.00,VWS V14.01,2013-08-23 07:30:00,
2013-08-23 01:35:00,60.3,55.1,29.91,North,-999,0.0,0.0,83,0.00,,,0.00,0.00,VWS V14.01,2013-08-23 07:35:00,
2013-08-23 01:40:00,60.2,55.7,29.90,North,-999,0.0,0.0,85,0.00,,,0.00,0.00,VWS V14.01,2013-08-23 07:40:00,
2013-08-23 01:45:00,60.4,55.9,29.90,North,-999,0.0,0.0,85,0.00,,,0.00,0.00,VWS V14.01,2013-08-23 07:45:00,
2013-08-23 01:50:00,60.7,55.5,29.91,North,-999,0.0,0.0,83,0.00,,,0.00,0.00,VWS V14.01,2013-08-23 07:50:00,
2013-08-23 01:55:00,60.8,55.6,29.91,North,-999,0.0,0.0,83,0.00,,,0.00,0.00,VWS V14.01,2013-08-23 07:55:00,
2013-08-23 02:00:00,60.9,55.7,29.90,North,-999,0.0,0.0,83,0.00,,,0.00,0.00,VWS V14.01,2013-08-23 08:00:00,
2013-08-23 02:05:00,60.5,55.0,29.90,North,-999,0.0,0.0,82,0.00,,,0.00,0.00,VWS V14.01,2013-08-23 08:05:00,
2013-08-23 02:10:00,60.5,55.7,29.90,North,-999,0.0,0.0,84,0.00,,,0.00,0.00,VWS V14.01,2013-08-23 08:10:00,
2013-08-23 02:15:00,60.5,55.0,29.90,North,-999,0.0,0.0,82,0.00,,,0.00,0.00,VWS V14.01,2013-08-23 08:15:00,
2013-08-23 02:20:00,60.0,54.5,29.90,North,-999,0.0,0.0,82,0.00,,,0.00,0.00,VWS V14.01,2013-08-23 08:20:00,
2013-08-23 02:25:00,59.7,54.9,29.90,North,-999,0.0,0.0,84,0.00,,,0.00,0.00,VWS V14.01,2013-08-23 08:25:00,
2013-08-23 02:30:00,59.7,55.2,29.90,North,-999,0.0,0.0,85,0.00,,,0.00,0.00,VWS V14.01,2013-08-23 08:30:00,
2013-08-23 02:35:00,59.7,55.2,29.90,North,-999,0.0,0.0,85,0.00,,,0.00,0.00,VWS V14.01,2013-08-23 08:35:00,
2013-08-23 02:40:00,59.6,54.8,29.90,North,-999,0.0,0.0,84,0.00,,,0.00,0.00,VWS V14.01,2013-08-23 08:40:00,
2013-08-23 02:45:00,59.6,55.1,29.90,North,-999,0.0,0.0,85,0.00,,,0.00,0.00,VWS V14.01,2013-08-23 08:45:00,
2013-08-23 02:50:00,59.6,54.8,29.90,North,-999,0.0,0.0,84,0.00,,,0.00,0.00,VWS V14.01,2013-08-23 08:50:00,
2013-08-23 02:55:00,59.5,54.7,29.90,North,-999,0.0,0.0,84,0.00,,,0.00,0.00,VWS V14.01,2013-08-23 08:55:00,
2013-08-23 03:00:00,58.6,53.8,29.91,North,-999,4.0,5.0,84,0.00,,,0.00,0.00,VWS V14.01,2013-08-23 09:00:00,
2013-08-23 03:05:00,57.5,53.0,29.90,North,-999,3.0,5.0,85,0.00,,,0.00,0.00,VWS V14.01,2013-08-23 09:05:00,
2013-08-23 03:10:00,57.6,54.1,29.90,North,-999,3.0,4.0,88,0.00,,,0.00,0.00,VWS V14.01,2013-08-23 09:10:00,
2013-08-23 03:15:00,58.0,54.2,29.91,North,-999,4.0,5.0,87,0.00,,,0.00,0.00,VWS V14.01,2013-08-23 09:15:00,
2013-08-23 03:20:00,58.0,53.8,29.92,North,-999,10.0,10.0,86,0.00,,,0.00,0.00,VWS V14.01,2013-08-23 09:20:00,
2013-08-23 03:25:00,61.0,55.8,29.93,North,-999,13.0,20.0,83,0.00,,,0.00,0.00,VWS V14.01,2013-08-23 09:25:00,
2013-08-23 03:30:00,63.0,56.4,29.92,North,-999,3.0,10.0,79,0.00,,,0.00,0.00,VWS V14.01,2013-08-23 09:30:00,
2013-08-23 03:35:00,63.7,56.4,29.92,North,-999,0.0,10.0,77,0.00,,,0.00,0.00,VWS V14.01,2013-08-23 09:35:00,
2013-08-23 03:40:00,63.9,56.2,29.92,North,-999,8.0,10.0,76,0.00,,,0.00,0.00,VWS V14.01,2013-08-23 09:40:00,
2013-08-23 03:45:00,63.6,56.3,29.92,North,-999,4.0,10.0,77,0.00,,,0.00,0.00,VWS V14.01,2013-08-23 09:45:00,
2013-08-23 03:50:00,64.0,55.6,29.92,North,-999,7.0,13.0,74,0.00,,,0.00,0.00,VWS V14.01,2013-08-23 09:50:00,
2013-08-23 03:55:00,64.9,55.3,29.92,North,-999,10.0,17.0,71,0.00,,,0.00,0.00,VWS V14.01,2013-08-23 09:55:00,
2013-08-23 04:00:00,66.8,54.2,29.92,North,-999,14.0,15.0,64,0.00,,,0.00,0.00,VWS V14.01,2013-08-23 10:00:00,
2013-08-23 04:05:00,67.3,55.2,29.92,North,-999,9.0,19.0,65,0.00,,,0.00,0.00,VWS V14.01,2013-08-23 10:05:00,
2013-08-23 04:10:00,65.9,54.7,29.92,North,-999,14.0,20.0,67,0.00,,,0.00,0.00,VWS V14.01,2013-08-23 10:10:00,
2013-08-23 04:15:00,66.6,54.9,29.92,North,-999,12.0,20.0,66,0.00,,,0.00,0.00,VWS V14.01,2013-08-23 10:15:00,
2013-08-23 04:20:00,65.5,55.1,29.92,North,-999,9.0,10.0,69,0.00,,,0.00,0.00,VWS V14.01,2013-08-23 10:20:00,
2013-08-23 04:25:00,64.1,54.9,29.92,North,-999,7.0,10.0,72,0.00,,,0.00,0.00,VWS V14.01,2013-08-23 10:25:00,
2013-08-23 04:30:00,63.6,54.8,29.91,North,-999,7.0,7.0,73,0.00,,,0.00,0.00,VWS V14.01,2013-08-23 10:30:00,
2013-08-23 04:35:00,64.0,55.2,29.91,North,-999,4.0,7.0,73,0.00,,,0.00,0.00,VWS V14.01,2013-08-23 10:35:00,
2013-08-23 04:40:00,63.4,55.0,29.91,North,-999,6.0,7.0,74,0.00,,,0.00,0.00,VWS V14.01,2013-08-23 10:40:00,
2013-08-23 04:45:00,63.6,54.4,29.91,North,-999,5.0,9.0,72,0.00,,,0.00,0.00,VWS V14.01,2013-08-23 10:45:00,
2013-08-23 04:50:00,63.0,55.0,29.90,North,-999,3.0,6.0,75,0.00,,,0.00,0.00,VWS V14.01,2013-08-23 10:50:00,
2013-08-23 04:55:00,62.9,54.9,29.90,North,-999,6.0,6.0,75,0.00,,,0.00,0.00,VWS V14.01,2013-08-23 10:55:00,
2013-08-23 05:00:00,63.6,55.2,29.89,North,-999,0.0,4.0,74,0.00,,,0.00,0.00,VWS V14.01,2013-08-23 11:00:00,
2013-08-23 05:05:00,64.0,54.0,29.89,North,-999,6.0,6.0,70,0.00,,,0.00,0.00,VWS V14.01,2013-08-23 11:05:00,
2013-08-23 05:10:00,65.8,53.7,29.89,North,-999,1.0,6.0,65,0.00,,,0.00,0.00,VWS V14.01,2013-08-23 11:10:00,
2013-08-23 05:15:00,67.4,53.0,29.89,North,-999,6.0,9.0,60,0.00,,,0.00,0.00,VWS V14.01,2013-08-23 11:15:00,
2013-08-23 05:20:00,69.1,52.3,29.88,North,-999,4.0,8.0,55,0.00,,,0.00,0.00,VWS V14.01,2013-08-23 11:20:00,
2013-08-23 05:25:00,68.9,54.0,29.88,North,-999,4.0,8.0,59,0.00,,,0.00,0.00,VWS V14.01,2013-08-23 11:25:00,
2013-08-23 05:30:00,67.9,52.6,29.88,North,-999,5.0,6.0,58,0.00,,,0.00,0.00,VWS V14.01,2013-08-23 11:30:00,
2013-08-23 05:34:00,68.3,53.0,29.88,North,-999,6.0,6.0,58,0.00,,,0.00,0.00,VWS V14.01,2013-08-23 11:34:00,
2013-08-23 05:39:00,68.3,53.0,29.88,North,-999,4.0,7.0,58,0.00,,,0.00,0.00,VWS V14.01,2013-08-23 11:39:00,
2013-08-23 05:44:00,67.7,52.4,29.88,North,-999,0.0,7.0,58,0.00,,,0.00,0.00,VWS V14.01,2013-08-23 11:44:00,
2013-08-23 05:49:00,67.4,54.4,29.88,North,-999,7.0,14.0,63,0.00,,,0.00,0.00,VWS V14.01,2013-08-23 11:49:00,
2013-08-23 05:54:00,65.8,54.5,29.88,North,-999,3.0,14.0,67,0.00,,,0.00,0.00,VWS V14.01,2013-08-23 11:54:00,
2013-08-23 05:59:00,65.1,54.7,29.88,North,-999,5.0,9.0,69,0.00,,,0.00,0.00,VWS V14.01,2013-08-23 11:59:00,
2013-08-23 06:04:00,64.6,54.6,29.89,North,-999,7.0,9.0,70,0.00,,,0.00,0.00,VWS V14.01,2013-08-23 12:04:00,
2013-08-23 06:09:00,63.9,54.7,29.89,North,-999,6.0,7.0,72,0.00,,,0.00,0.00,VWS V14.01,2013-08-23 12:09:00,
2013-08-23 06:14:00,63.3,54.1,29.90,North,-999,5.0,7.0,72,0.00,,,0.00,0.00,VWS V14.01,2013-08-23 12:14:00,
2013-08-23 06:19:00,63.0,54.6,29.90,North,-999,0.0,7.0,74,0.00,,,0.00,0.00,VWS V14.01,2013-08-23 12:19:00,
2013-08-23 06:24:00,62.6,54.9,29.90,North,-999,0.0,7.0,76,0.00,,,0.00,5.00,VWS V14.01,2013-08-23 12:24:00,
2013-08-23 06:29:00,62.3,55.4,29.90,North,-999,0.0,0.0,78,0.00,,,0.00,9.00,VWS V14.01,2013-08-23 12:29:00,
2013-08-23 06:34:00,62.0,55.4,29.91,North,-999,0.0,0.0,79,0.00,,,0.00,12.00,VWS V14.01,2013-08-23 12:34:00,
2013-08-23 06:39:00,61.7,55.5,29.90,North,-999,0.0,0.0,80,0.00,,,0.00,19.00,VWS V14.01,2013-08-23 12:39:00,
2013-08-23 06:44:00,61.5,55.6,29.90,North,-999,0.0,0.0,81,0.00,,,0.00,25.00,VWS V14.01,2013-08-23 12:44:00,
2013-08-23 06:49:00,61.5,55.6,29.91,North,-999,0.0,0.0,81,0.00,,,0.00,28.00,VWS V14.01,2013-08-23 12:49:00,
2013-08-23 06:54:00,61.3,55.4,29.91,North,-999,3.0,6.0,81,0.00,,,0.00,32.00,VWS V14.01,2013-08-23 12:54:00,
2013-08-23 06:59:00,60.8,54.9,29.90,North,-999,0.0,3.0,81,0.00,,,0.00,35.00,VWS V14.01,2013-08-23 12:59:00,
2013-08-23 07:04:00,60.4,54.5,29.90,North,-999,3.0,6.0,81,0.00,,,0.00,51.00,VWS V14.01,2013-08-23 13:04:00,
2013-08-23 07:09:00,60.4,54.5,29.90,North,-999,0.0,0.0,81,0.00,,,0.00,63.00,VWS V14.01,2013-08-23 13:09:00,
2013-08-23 07:14:00,60.6,54.8,29.91,North,-999,0.0,0.0,81,0.00,,,0.00,79.00,VWS V14.01,2013-08-23 13:14:00,
2013-08-23 07:19:00,61.1,55.2,29.91,North,-999,0.0,0.0,81,0.00,,,0.00,56.00,VWS V14.01,2013-08-23 13:19:00,
2013-08-23 07:24:00,61.4,54.8,29.90,North,-999,0.0,0.0,79,0.00,,,0.00,62.00,VWS V14.01,2013-08-23 13:24:00,
2013-08-23 07:29:00,61.7,55.1,29.90,North,-999,0.0,0.0,79,0.00,,,0.00,69.00,VWS V14.01,2013-08-23 13:29:00,
2013-08-23 07:34:00,62.2,55.3,29.90,North,-999,0.0,0.0,78,0.00,,,0.00,95.00,VWS V14.01,2013-08-23 13:34:00,
2013-08-23 07:39:00,62.6,55.7,29.90,North,-999,0.0,0.0,78,0.00,,,0.00,142.00,VWS V14.01,2013-08-23 13:39:00,
2013-08-23 07:44:00,63.0,56.0,29.89,North,-999,0.0,0.0,78,0.00,,,0.00,135.00,VWS V14.01,2013-08-23 13:44:00,
2013-08-23 07:49:00,63.2,55.9,29.90,North,-999,0.0,0.0,77,0.00,,,0.00,132.00,VWS V14.01,2013-08-23 13:49:00,
2013-08-23 07:54:00,63.3,56.0,29.90,North,-999,0.0,0.0,77,0.00,,,0.00,111.00,VWS V14.01,2013-08-23 13:54:00,
2013-08-23 07:59:00,63.4,56.4,29.90,North,-999,0.0,4.0,78,0.00,,,0.00,121.00,VWS V14.01,2013-08-23 13:59:00,
2013-08-23 08:04:00,63.5,56.5,29.89,North,-999,0.0,4.0,78,0.00,,,0.00,121.00,VWS V14.01,2013-08-23 14:04:00,
2013-08-23 08:09:00,63.8,56.8,29.89,North,-999,0.0,0.0,78,0.00,,,0.00,185.00,VWS V14.01,2013-08-23 14:09:00,
2013-08-23 08:14:00,64.6,57.6,29.89,North,-999,0.0,0.0,78,0.00,,,0.00,195.00,VWS V14.01,2013-08-23 14:14:00,
2013-08-23 08:19:00,64.9,56.4,29.89,North,-999,0.0,0.0,74,0.00,,,0.00,246.00,VWS V14.01,2013-08-23 14:19:00,
2013-08-23 08:24:00,65.3,56.0,29.89,North,-999,0.0,0.0,72,0.00,,,0.00,264.00,VWS V14.01,2013-08-23 14:24:00,
2013-08-23 08:29:00,66.1,56.8,29.89,North,-999,0.0,4.0,72,0.00,,,0.00,279.00,VWS V14.01,2013-08-23 14:29:00,
2013-08-23 08:34:00,66.8,56.7,29.89,North,-999,0.0,4.0,70,0.00,,,0.00,225.00,VWS V14.01,2013-08-23 14:34:00,
2013-08-23 08:39:00,67.8,56.5,29.89,North,-999,1.0,3.0,67,0.00,,,0.00,285.00,VWS V14.01,2013-08-23 14:39:00,
2013-08-23 08:44:00,68.5,56.7,29.90,North,-999,0.0,3.0,66,0.00,,,0.00,316.00,VWS V14.01,2013-08-23 14:44:00,
2013-08-23 08:49:00,69.0,56.3,29.90,North,-999,0.0,0.0,64,0.00,,,0.00,327.00,VWS V14.01,2013-08-23 14:49:00,
2013-08-23 08:54:00,69.3,57.0,29.90,North,-999,0.0,4.0,65,0.00,,,0.00,355.00,VWS V14.01,2013-08-23 14:54:00,
2013-08-23 08:59:00,69.6,56.9,29.90,North,-999,0.0,0.0,64,0.00,,,0.00,352.00,VWS V14.01,2013-08-23 14:59:00,
2013-08-23 09:04:00,70.3,57.1,29.89,North,-999,0.0,0.0,63,0.00,,,0.00,397.00,VWS V14.01,2013-08-23 15:04:00,
2013-08-23 09:09:00,70.9,57.2,29.89,North,-999,0.0,0.0,62,0.00,,,0.00,396.00,VWS V14.01,2013-08-23 15:09:00,
2013-08-23 09:14:00,71.5,57.8,29.89,North,-999,0.0,0.0,62,0.00,,,0.00,439.00,VWS V14.01,2013-08-23 15:14:00,
2013-08-23 09:19:00,72.1,58.4,29.89,North,-999,5.0,5.0,62,0.00,,,0.00,457.00,VWS V14.01,2013-08-23 15:19:00,
2013-08-23 09:24:00,73.1,57.5,29.89,North,-999,7.0,9.0,58,0.00,,,0.00,476.00,VWS V14.01,2013-08-23 15:24:00,
2013-08-23 09:29:00,74.4,52.3,29.88,North,-999,4.0,6.0,46,0.00,,,0.00,483.00,VWS V14.01,2013-08-23 15:29:00,
2013-08-23 09:34:00,75.4,54.4,29.88,North,-999,4.0,6.0,48,0.00,,,0.00,497.00,VWS V14.01,2013-08-23 15:34:00,
2013-08-23 09:39:00,75.6,54.5,29.88,North,-999,5.0,7.0,48,0.00,,,0.00,506.00,VWS V14.01,2013-08-23 15:39:00,
2013-08-23 09:44:00,75.6,54.0,29.88,North,-999,4.0,8.0,47,0.00,,,0.00,522.00,VWS V14.01,2013-08-23 15:44:00,
2013-08-23 09:49:00,75.9,56.0,29.88,North,-999,2.0,6.0,50,0.00,,,0.00,534.00,VWS V14.01,2013-08-23 15:49:00,
2013-08-23 09:54:00,76.7,55.0,29.88,North,-999,5.0,6.0,47,0.00,,,0.00,547.00,VWS V14.01,2013-08-23 15:54:00,
2013-08-23 09:59:00,76.8,54.5,29.89,North,-999,6.0,6.0,46,0.00,,,0.00,557.00,VWS V14.01,2013-08-23 15:59:00,
2013-08-23 10:04:00,77.2,54.2,29.88,North,-999,4.0,6.0,45,0.00,,,0.00,570.00,VWS V14.01,2013-08-23 16:04:00,
2013-08-23 10:09:00,77.2,55.4,29.88,North,-999,3.0,5.0,47,0.00,,,0.00,585.00,VWS V14.01,2013-08-23 16:09:00,
2013-08-23 10:14:00,77.5,55.7,29.88,North,-999,3.0,5.0,47,0.00,,,0.00,596.00,VWS V14.01,2013-08-23 16:14:00,
2013-08-23 10:19:00,78.2,56.3,29.88,North,-999,4.0,4.0,47,0.00,,,0.00,610.00,VWS V14.01,2013-08-23 16:19:00,
2013-08-23 10:24:00,79.2,56.7,29.88,North,-999,2.0,6.0,46,0.00,,,0.00,621.00,VWS V14.01,2013-08-23 16:24:00,
2013-08-23 10:29:00,79.9,55.4,29.88,North,-999,1.0,3.0,43,0.00,,,0.00,629.00,VWS V14.01,2013-08-23 16:29:00,
2013-08-23 10:34:00,80.6,55.4,29.88,North,-999,2.0,6.0,42,0.00,,,0.00,587.00,VWS V14.01,2013-08-23 16:34:00,
2013-08-23 10:39:00,80.9,55.7,29.88,North,-999,2.0,6.0,42,0.00,,,0.00,656.00,VWS V14.01,2013-08-23 16:39:00,
2013-08-23 10:44:00,81.1,55.9,29.87,North,-999,0.0,6.0,42,0.00,,,0.00,666.00,VWS V14.01,2013-08-23 16:44:00,
2013-08-23 10:49:00,81.1,55.2,29.87,North,-999,4.0,6.0,41,0.00,,,0.00,675.00,VWS V14.01,2013-08-23 16:49:00,
2013-08-23 10:54:00,80.9,55.0,29.87,North,-999,4.0,7.0,41,0.00,,,0.00,689.00,VWS V14.01,2013-08-23 16:54:00,
2013-08-23 10:59:00,80.8,54.9,29.87,North,-999,5.0,7.0,41,0.00,,,0.00,691.00,VWS V14.01,2013-08-23 16:59:00,
2013-08-23 11:03:00,80.8,54.2,29.87,North,-999,4.0,7.0,40,0.00,,,0.00,708.00,VWS V14.01,2013-08-23 17:03:00,
2013-08-23 11:08:00,81.0,54.4,29.87,North,-999,4.0,5.0,40,0.00,,,0.00,717.00,VWS V14.01,2013-08-23 17:08:00,
2013-08-23 11:13:00,81.4,54.8,29.87,North,-999,5.0,6.0,40,0.00,,,0.00,728.00,VWS V14.01,2013-08-23 17:13:00,
2013-08-23 11:18:00,81.7,54.4,29.87,North,-999,5.0,9.0,39,0.00,,,0.00,735.00,VWS V14.01,2013-08-23 17:18:00,
2013-08-23 11:23:00,81.8,54.5,29.87,North,-999,5.0,9.0,39,0.00,,,0.00,749.00,VWS V14.01,2013-08-23 17:23:00,
2013-08-23 11:28:00,82.3,54.9,29.87,North,-999,7.0,7.0,39,0.00,,,0.00,751.00,VWS V14.01,2013-08-23 17:28:00,
2013-08-23 11:33:00,82.3,54.2,29.87,North,-999,4.0,7.0,38,0.00,,,0.00,737.00,VWS V14.01,2013-08-23 17:33:00,
2013-08-23 11:38:00,82.7,53.8,29.86,North,-999,9.0,10.0,37,0.00,,,0.00,763.00,VWS V14.01,2013-08-23 17:38:00,
2013-08-23 11:43:00,83.1,53.4,29.87,North,-999,0.0,10.0,36,0.00,,,0.00,768.00,VWS V14.01,2013-08-23 17:43:00,
2013-08-23 11:48:00,83.6,53.8,29.87,North,-999,2.0,9.0,36,0.00,,,0.00,779.00,VWS V14.01,2013-08-23 17:48:00,
2013-08-23 11:53:00,84.2,53.6,29.86,North,-999,3.0,9.0,35,0.00,,,0.00,786.00,VWS V14.01,2013-08-23 17:53:00,
2013-08-23 11:58:00,84.3,53.7,29.86,North,-999,6.0,9.0,35,0.00,,,0.00,796.00,VWS V14.01,2013-08-23 17:58:00,
2013-08-23 12:03:00,84.2,53.6,29.86,North,-999,6.0,11.0,35,0.00,,,0.00,807.00,VWS V14.01,2013-08-23 18:03:00,
2013-08-23 12:08:00,85.0,53.5,29.86,North,-999,11.0,12.0,34,0.00,,,0.00,807.00,VWS V14.01,2013-08-23 18:08:00,
2013-08-23 12:13:00,84.7,52.4,29.86,North,-999,10.0,17.0,33,0.00,,,0.00,807.00,VWS V14.01,2013-08-23 18:13:00,
2013-08-23 12:18:00,84.9,53.4,29.86,North,-999,13.0,14.0,34,0.00,,,0.00,823.00,VWS V14.01,2013-08-23 18:18:00,
2013-08-23 12:23:00,84.7,54.0,29.85,North,-999,12.0,15.0,35,0.00,,,0.00,828.00,VWS V14.01,2013-08-23 18:23:00,
2013-08-23 12:28:00,85.0,53.5,29.85,North,-999,12.0,17.0,34,0.00,,,0.00,824.00,VWS V14.01,2013-08-23 18:28:00,
2013-08-23 12:33:00,84.9,53.4,29.85,North,-999,5.0,17.0,34,0.00,,,0.00,828.00,VWS V14.01,2013-08-23 18:33:00,
2013-08-23 12:38:00,84.8,53.3,29.85,North,-999,11.0,16.0,34,0.00,,,0.00,833.00,VWS V14.01,2013-08-23 18:38:00,
2013-08-23 12:43:00,85.1,54.4,29.85,North,-999,11.0,17.0,35,0.00,,,0.00,828.00,VWS V14.01,2013-08-23 18:43:00,
2013-08-23 12:48:00,85.6,53.2,29.84,North,-999,9.0,9.0,33,0.00,,,0.00,840.00,VWS V14.01,2013-08-23 18:48:00,
2013-08-23 12:53:00,85.6,52.4,29.84,North,-999,6.0,15.0,32,0.00,,,0.00,849.00,VWS V14.01,2013-08-23 18:53:00,
2013-08-23 12:58:00,85.7,53.3,29.84,North,-999,17.0,19.0,33,0.00,,,0.00,846.00,VWS V14.01,2013-08-23 18:58:00,
2013-08-23 13:03:00,85.5,53.1,29.84,North,-999,9.0,19.0,33,0.00,,,0.00,849.00,VWS V14.01,2013-08-23 19:03:00,
2013-08-23 13:08:00,85.7,52.5,29.84,North,-999,10.0,15.0,32,0.00,,,0.00,350.00,VWS V14.01,2013-08-23 19:08:00,
2013-08-23 13:13:00,85.3,53.0,29.83,North,-999,7.0,17.0,33,0.00,,,0.00,413.00,VWS V14.01,2013-08-23 19:13:00,
2013-08-23 13:18:00,85.2,52.9,29.83,North,-999,9.0,15.0,33,0.00,,,0.00,415.00,VWS V14.01,2013-08-23 19:18:00,
2013-08-23 13:23:00,85.1,52.0,29.83,North,-999,9.0,16.0,32,0.00,,,0.00,904.00,VWS V14.01,2013-08-23 19:23:00,
2013-08-23 13:28:00,85.8,51.7,29.83,North,-999,11.0,12.0,31,0.00,,,0.00,888.00,VWS V14.01,2013-08-23 19:28:00,
2013-08-23 13:33:00,86.6,52.4,29.83,North,-999,9.0,15.0,31,0.00,,,0.00,856.00,VWS V14.01,2013-08-23 19:33:00,
2013-08-23 13:38:00,86.9,51.8,29.83,North,-999,5.0,13.0,30,0.00,,,0.00,858.00,VWS V14.01,2013-08-23 19:38:00,
2013-08-23 13:43:00,87.0,52.7,29.83,North,-999,12.0,17.0,31,0.00,,,0.00,856.00,VWS V14.01,2013-08-23 19:43:00,
2013-08-23 13:48:00,86.8,50.8,29.82,North,-999,4.0,11.0,29,0.00,,,0.00,851.00,VWS V14.01,2013-08-23 19:48:00,
2013-08-23 13:53:00,87.0,51.8,29.82,North,-999,9.0,13.0,30,0.00,,,0.00,861.00,VWS V14.01,2013-08-23 19:53:00,
2013-08-23 13:58:00,87.2,51.1,29.82,North,-999,15.0,17.0,29,0.00,,,0.00,842.00,VWS V14.01,2013-08-23 19:58:00,
2013-08-23 14:03:00,87.2,51.1,29.82,North,-999,11.0,17.0,29,0.00,,,0.00,837.00,VWS V14.01,2013-08-23 20:03:00,
2013-08-23 14:08:00,87.0,50.9,29.82,North,-999,10.0,14.0,29,0.00,,,0.00,870.00,VWS V14.01,2013-08-23 20:08:00,
2013-08-23 14:13:00,87.1,51.0,29.81,North,-999,1.0,15.0,29,0.00,,,0.00,786.00,VWS V14.01,2013-08-23 20:13:00,
2013-08-23 14:18:00,87.6,50.5,29.81,North,-999,6.0,12.0,28,0.00,,,0.00,889.00,VWS V14.01,2013-08-23 20:18:00,
2013-08-23 14:23:00,87.5,51.4,29.81,North,-999,8.0,13.0,29,0.00,,,0.00,905.00,VWS V14.01,2013-08-23 20:23:00,
2013-08-23 14:28:00,88.2,51.0,29.81,North,-999,3.0,10.0,28,0.00,,,0.00,905.00,VWS V14.01,2013-08-23 20:28:00,
2013-08-23 14:33:00,88.5,51.3,29.81,North,-999,5.0,13.0,28,0.00,,,0.00,865.00,VWS V14.01,2013-08-23 20:33:00,
2013-08-23 14:38:00,88.8,50.5,29.81,North,-999,6.0,9.0,27,0.00,,,0.00,833.00,VWS V14.01,2013-08-23 20:38:00,
2013-08-23 14:43:00,88.5,50.3,29.81,North,-999,4.0,15.0,27,0.00,,,0.00,891.00,VWS V14.01,2013-08-23 20:43:00,
2013-08-23 14:48:00,88.5,49.3,29.80,North,-999,10.0,12.0,26,0.00,,,0.00,870.00,VWS V14.01,2013-08-23 20:48:00,
2013-08-23 14:53:00,88.2,51.0,29.80,North,-999,10.0,16.0,28,0.00,,,0.00,888.00,VWS V14.01,2013-08-23 20:53:00,
2013-08-23 14:58:00,88.5,51.3,29.80,North,-999,4.0,9.0,28,0.00,,,0.00,856.00,VWS V14.01,2013-08-23 20:58:00,
2013-08-23 15:03:00,88.8,51.5,29.80,North,-999,12.0,14.0,28,0.00,,,0.00,830.00,VWS V14.01,2013-08-23 21:03:00,
2013-08-23 15:08:00,88.8,50.5,29.79,North,-999,10.0,15.0,27,0.00,,,0.00,842.00,VWS V14.01,2013-08-23 21:08:00,
2013-08-23 15:13:00,88.3,51.1,29.80,North,-999,10.0,17.0,28,0.00,,,0.00,295.00,VWS V14.01,2013-08-23 21:13:00,
2013-08-23 15:18:00,88.3,51.1,29.80,North,-999,13.0,13.0,28,0.00,,,0.00,218.00,VWS V14.01,2013-08-23 21:18:00,
2013-08-23 15:23:00,87.8,50.7,29.80,North,-999,6.0,15.0,28,0.00,,,0.00,257.00,VWS V14.01,2013-08-23 21:23:00,
2013-08-23 15:28:00,87.7,49.6,29.80,North,-999,10.0,16.0,27,0.00,,,0.00,278.00,VWS V14.01,2013-08-23 21:28:00,
2013-08-23 15:33:00,87.1,49.1,29.80,North,-999,11.0,16.0,27,0.00,,,0.00,197.00,VWS V14.01,2013-08-23 21:33:00,
2013-08-23 15:38:00,86.8,49.8,29.80,North,-999,7.0,13.0,28,0.00,,,0.00,156.00,VWS V14.01,2013-08-23 21:38:00,
2013-08-23 15:43:00,86.8,48.8,29.80,North,-999,8.0,13.0,27,0.00,,,0.00,98.00,VWS V14.01,2013-08-23 21:43:00,
2013-08-23 15:48:00,86.6,50.6,29.80,North,-999,6.0,12.0,29,0.00,,,0.00,77.00,VWS V14.01,2013-08-23 21:48:00,
2013-08-23 15:53:00,86.3,50.3,29.80,North,-999,4.0,12.0,29,0.00,,,0.00,72.00,VWS V14.01,2013-08-23 21:53:00,
2013-08-23 15:58:00,86.1,50.2,29.80,North,-999,0.0,6.0,29,0.00,,,0.00,77.00,VWS V14.01,2013-08-23 21:58:00,
2013-08-23 16:03:00,86.0,51.9,29.81,North,-999,12.0,12.0,31,0.00,,,0.00,97.00,VWS V14.01,2013-08-23 22:03:00,
2013-08-23 16:08:00,84.4,50.5,29.82,North,-999,16.0,20.0,31,0.00,,,0.00,135.00,VWS V14.01,2013-08-23 22:08:00,
2013-08-23 16:13:00,81.8,55.8,29.82,North,-999,13.0,22.0,41,0.00,,,0.00,171.00,VWS V14.01,2013-08-23 22:13:00,
2013-08-23 16:18:00,79.6,53.8,29.82,North,-999,16.0,16.0,41,0.00,,,0.00,204.00,VWS V14.01,2013-08-23 22:18:00,
2013-08-23 16:23:00,79.4,53.7,29.82,North,-999,11.0,18.0,41,0.00,,,0.00,197.00,VWS V14.01,2013-08-23 22:23:00,
2013-08-23 16:28:00,80.0,52.8,29.82,North,-999,11.0,14.0,39,0.00,,,0.00,171.00,VWS V14.01,2013-08-23 22:28:00,
2013-08-23 16:33:00,80.2,53.0,29.82,North,-999,11.0,15.0,39,0.00,,,0.00,165.00,VWS V14.01,2013-08-23 22:33:00,
2013-08-23 16:38:00,80.2,53.7,29.82,North,-999,9.0,10.0,40,0.00,,,0.00,185.00,VWS V14.01,2013-08-23 22:38:00,
2013-08-23 16:43:00,80.5,54.0,29.82,North,-999,6.0,11.0,40,0.00,,,0.00,218.00,VWS V14.01,2013-08-23 22:43:00,
2013-08-23 16:48:00,80.8,53.6,29.82,North,-999,5.0,6.0,39,0.00,,,0.00,367.00,VWS V14.01,2013-08-23 22:48:00,
2013-08-23 16:52:00,81.4,54.1,29.81,North,-999,7.0,10.0,39,0.00,,,0.00,663.00,VWS V14.01,2013-08-23 22:52:00,
2013-08-23 16:57:00,82.1,53.3,29.81,North,-999,10.0,10.0,37,0.00,,,0.00,281.00,VWS V14.01,2013-08-23 22:57:00,
2013-08-23 17:02:00,82.1,52.5,29.80,North,-999,6.0,10.0,36,0.00,,,0.00,418.00,VWS V14.01,2013-08-23 23:02:00,
2013-08-23 17:07:00,82.6,53.7,29.80,North,-999,7.0,10.0,37,0.00,,,0.00,327.00,VWS V14.01,2013-08-23 23:07:00,
2013-08-23 17:12:00,82.8,53.2,29.80,North,-999,5.0,12.0,36,0.00,,,0.00,415.00,VWS V14.01,2013-08-23 23:12:00,
2013-08-23 17:17:00,82.9,56.1,29.81,North,-999,7.0,7.0,40,0.00,,,0.00,188.00,VWS V14.01,2013-08-23 23:17:00,
2013-08-23 17:22:00,82.1,51.8,29.81,North,-999,7.0,10.0,35,0.00,,,0.00,169.00,VWS V14.01,2013-08-23 23:22:00,
2013-08-23 17:27:00,82.7,49.9,29.81,North,-999,6.0,6.0,32,0.00,,,0.00,128.00,VWS V14.01,2013-08-23 23:27:00,
2013-08-23 17:32:00,83.1,51.0,29.81,North,-999,7.0,15.0,33,0.00,,,0.00,120.00,VWS V14.01,2013-08-23 23:32:00,
2013-08-23 17:37:00,82.7,50.7,29.81,North,-999,8.0,9.0,33,0.00,,,0.00,109.00,VWS V14.01,2013-08-23 23:37:00,
2013-08-23 17:42:00,82.3,49.5,29.80,North,-999,7.0,11.0,32,0.00,,,0.00,97.00,VWS V14.01,2013-08-23 23:42:00,
2013-08-23 17:47:00,81.9,50.8,29.81,North,-999,5.0,7.0,34,0.00,,,0.00,90.00,VWS V14.01,2013-08-23 23:47:00,
2013-08-23 17:52:00,81.2,52.5,29.80,North,-999,9.0,10.0,37,0.00,,,0.00,88.00,VWS V14.01,2013-08-23 23:52:00,
2013-08-23 17:57:00,80.6,51.2,29.80,North,-999,10.0,10.0,36,0.00,,,0.00,90.00,VWS V14.01,2013-08-23 23:57:00,
2013-08-23 18:02:00,78.8,54.4,29.81,North,-999,10.0,11.0,43,0.00,,,0.00,81.00,VWS V14.01,2013-08-24 00:02:00,
2013-08-23 18:07:00,78.2,51.9,29.80,North,-999,6.0,7.0,40,0.00,,,0.00,67.00,VWS V14.01,2013-08-24 00:07:00,
2013-08-23 18:12:00,78.9,51.9,29.80,North,-999,4.0,10.0,39,0.00,,,0.00,53.00,VWS V14.01,2013-08-24 00:12:00,
2013-08-23 18:17:00,79.3,51.5,29.80,North,-999,0.0,4.0,38,0.00,,,0.00,47.00,VWS V14.01,2013-08-24 00:17:00,
2013-08-23 18:22:00,79.7,51.9,29.80,North,-999,4.0,6.0,38,0.00,,,0.00,47.00,VWS V14.01,2013-08-24 00:22:00,
2013-08-23 18:27:00,79.7,51.9,29.80,North,-999,3.0,6.0,38,0.00,,,0.00,49.00,VWS V14.01,2013-08-24 00:27:00,
2013-08-23 18:32:00,79.8,51.2,29.80,North,-999,0.0,7.0,37,0.00,,,0.00,54.00,VWS V14.01,2013-08-24 00:32:00,
2013-08-23 18:37:00,79.9,50.6,29.80,North,-999,0.0,5.0,36,0.00,,,0.00,56.00,VWS V14.01,2013-08-24 00:37:00,
2013-08-23 18:42:00,80.2,50.1,29.80,North,-999,0.0,5.0,35,0.00,,,0.00,60.00,VWS V14.01,2013-08-24 00:42:00,
2013-08-23 18:47:00,80.4,50.3,29.79,North,-999,0.0,0.0,35,0.00,,,0.00,67.00,VWS V14.01,2013-08-24 00:47:00,
2013-08-23 18:52:00,80.4,50.3,29.80,North,-999,0.0,0.0,35,0.00,,,0.00,53.00,VWS V14.01,2013-08-24 00:52:00,
2013-08-23 18:57:00,80.3,50.9,29.79,North,-999,2.0,3.0,36,0.00,,,0.00,42.00,VWS V14.01,2013-08-24 00:57:00,
2013-08-23 19:02:00,80.1,50.8,29.79,North,-999,0.0,3.0,36,0.00,,,0.00,28.00,VWS V14.01,2013-08-24 01:02:00,
2013-08-23 19:07:00,79.9,52.0,29.78,North,-999,3.0,3.0,38,0.00,,,0.00,19.00,VWS V14.01,2013-08-24 01:07:00,
2013-08-23 19:12:00,79.4,51.6,29.78,North,-999,4.0,8.0,38,0.00,,,0.00,18.00,VWS V14.01,2013-08-24 01:12:00,
2013-08-23 19:17:00,79.3,51.5,29.79,North,-999,0.0,0.0,38,0.00,,,0.00,18.00,VWS V14.01,2013-08-24 01:17:00,
2013-08-23 19:22:00,79.0,52.0,29.79,North,-999,2.0,6.0,39,0.00,,,0.00,16.00,VWS V14.01,2013-08-24 01:22:00,
2013-08-23 19:27:00,78.4,52.1,29.79,North,-999,0.0,0.0,40,0.00,,,0.00,16.00,VWS V14.01,2013-08-24 01:27:00,
2013-08-23 19:32:00,78.0,51.8,29.79,North,-999,0.0,0.0,40,0.00,,,0.00,14.00,VWS V14.01,2013-08-24 01:32:00,
2013-08-23 19:37:00,77.7,53.5,29.79,North,-999,0.0,0.0,43,0.00,,,0.00,12.00,VWS V14.01,2013-08-24 01:37:00,
2013-08-23 19:42:00,77.5,52.6,29.79,North,-999,0.0,0.0,42,0.00,,,0.00,11.00,VWS V14.01,2013-08-24 01:42:00,
2013-08-23 19:47:00,77.2,53.0,29.79,North,-999,0.0,0.0,43,0.00,,,0.00,9.00,VWS V14.01,2013-08-24 01:47:00,
2013-08-23 19:52:00,76.7,51.9,29.79,North,-999,0.0,3.0,42,0.00,,,0.00,7.00,VWS V14.01,2013-08-24 01:52:00,
2013-08-23 19:57:00,76.6,51.8,29.79,North,-999,0.0,3.0,42,0.00,,,0.00,5.00,VWS V14.01,2013-08-24 01:57:00,
2013-08-23 20:02:00,76.2,53.3,29.79,North,-999,0.0,0.0,45,0.00,,,0.00,0.00,VWS V14.01,2013-08-24 02:02:00,
2013-08-23 20:07:00,74.3,52.8,29.80,North,-999,0.0,0.0,47,0.00,,,0.00,0.00,VWS V14.01,2013-08-24 02:07:00,
2013-08-23 20:12:00,74.5,51.8,29.79,North,-999,0.0,0.0,45,0.00,,,0.00,0.00,VWS V14.01,2013-08-24 02:12:00,
2013-08-23 20:17:00,74.1,56.4,29.80,North,-999,6.0,6.0,54,0.00,,,0.00,0.00,VWS V14.01,2013-08-24 02:17:00,
2013-08-23 20:22:00,71.9,53.9,29.80,North,-999,6.0,10.0,53,0.00,,,0.00,0.00,VWS V14.01,2013-08-24 02:22:00,
2013-08-23 20:27:00,72.1,54.6,29.80,North,-999,5.0,10.0,54,0.00,,,0.00,0.00,VWS V14.01,2013-08-24 02:27:00,
2013-08-23 20:32:00,72.0,53.4,29.80,North,-999,7.0,9.0,52,0.00,,,0.00,0.00,VWS V14.01,2013-08-24 02:32:00,
2013-08-23 20:37:00,73.9,53.6,29.81,North,-999,14.0,14.0,49,0.00,,,0.00,0.00,VWS V14.01,2013-08-24 02:37:00,
2013-08-23 20:42:00,74.6,53.1,29.81,North,-999,18.0,20.0,47,0.00,,,0.00,0.00,VWS V14.01,2013-08-24 02:42:00,
2013-08-23 20:47:00,74.7,52.0,29.82,North,-999,18.0,23.0,45,0.00,,,0.00,0.00,VWS V14.01,2013-08-24 02:47:00,
2013-08-23 20:52:00,74.2,51.5,29.83,North,-999,9.0,19.0,45,0.00,,,0.00,0.00,VWS V14.01,2013-08-24 02:52:00,
2013-08-23 20:57:00,73.4,51.4,29.83,North,-999,10.0,19.0,46,0.00,,,0.00,0.00,VWS V14.01,2013-08-24 02:57:00,
2013-08-23 21:02:00,72.8,52.0,29.84,North,-999,4.0,13.0,48,0.00,,,0.00,0.00,VWS V14.01,2013-08-24 03:02:00,
2013-08-23 21:07:00,72.5,51.7,29.85,North,-999,13.0,17.0,48,0.00,,,0.00,0.00,VWS V14.01,2013-08-24 03:07:00,
2013-08-23 21:12:00,72.2,52.0,29.85,North,-999,13.0,16.0,49,0.00,,,0.00,0.00,VWS V14.01,2013-08-24 03:12:00,
2013-08-23 21:17:00,72.1,51.9,29.86,North,-999,16.0,21.0,49,0.00,,,0.00,0.00,VWS V14.01,2013-08-24 03:17:00,
2013-08-23 21:22:00,72.0,52.4,29.86,North,-999,8.0,22.0,50,0.00,,,0.00,0.00,VWS V14.01,2013-08-24 03:22:00,
2013-08-23 21:27:00,71.9,52.3,29.86,North,-999,12.0,23.0,50,0.00,,,0.00,0.00,VWS V14.01,2013-08-24 03:27:00,
2013-08-23 21:32:00,71.9,51.7,29.86,North,-999,16.0,22.0,49,0.00,,,0.00,0.00,VWS V14.01,2013-08-24 03:32:00,
2013-08-23 21:37:00,72.0,51.8,29.86,North,-999,16.0,22.0,49,0.00,,,0.00,0.00,VWS V14.01,2013-08-24 03:37:00,
2013-08-23 21:42:00,72.0,51.8,29.86,North,-999,18.0,18.0,49,0.00,,,0.00,0.00,VWS V14.01,2013-08-24 03:42:00,
2013-08-23 21:47:00,72.0,51.8,29.86,North,-999,4.0,18.0,49,0.00,,,0.00,0.00,VWS V14.01,2013-08-24 03:47:00,
2013-08-23 21:52:00,71.9,51.7,29.85,North,-999,14.0,21.0,49,0.00,,,0.00,0.00,VWS V14.01,2013-08-24 03:52:00,
2013-08-23 21:57:00,72.0,51.8,29.84,North,-999,11.0,21.0,49,0.00,,,0.00,0.00,VWS V14.01,2013-08-24 03:57:00,
2013-08-23 22:01:00,71.9,51.7,29.84,North,-999,14.0,19.0,49,0.00,,,0.00,0.00,VWS V14.01,2013-08-24 04:01:00,
2013-08-23 22:06:00,71.9,51.7,29.84,North,-999,5.0,20.0,49,0.00,,,0.00,0.00,VWS V14.01,2013-08-24 04:06:00,
2013-08-23 22:11:00,71.9,51.7,29.84,North,-999,17.0,20.0,49,0.00,,,0.00,0.00,VWS V14.01,2013-08-24 04:11:00,
2013-08-23 22:16:00,71.9,51.7,29.84,North,-999,6.0,22.0,49,0.00,,,0.00,0.00,VWS V14.01,2013-08-24 04:16:00,
2013-08-23 22:21:00,71.9,51.2,29.84,North,-999,13.0,21.0,48,0.00,,,0.00,0.00,VWS V14.01,2013-08-24 04:21:00,
2013-08-23 22:26:00,72.2,51.4,29.84,North,-999,15.0,21.0,48,0.00,,,0.00,0.00,VWS V14.01,2013-08-24 04:26:00,
2013-08-23 22:31:00,72.2,51.4,29.84,North,-999,15.0,22.0,48,0.00,,,0.00,0.00,VWS V14.01,2013-08-24 04:31:00,
2013-08-23 22:36:00,72.0,51.8,29.84,North,-999,7.0,22.0,49,0.00,,,0.00,0.00,VWS V14.01,2013-08-24 04:36:00,
2013-08-23 22:41:00,71.9,51.7,29.84,North,-999,2.0,17.0,49,0.00,,,0.00,0.00,VWS V14.01,2013-08-24 04:41:00,
2013-08-23 22:46:00,71.8,51.6,29.84,North,-999,7.0,17.0,49,0.00,,,0.00,0.00,VWS V14.01,2013-08-24 04:46:00,
2013-08-23 22:51:00,71.7,51.5,29.83,North,-999,7.0,14.0,49,0.00,,,0.00,0.00,VWS V14.01,2013-08-24 04:51:00,
2013-08-23 22:56:00,71.7,51.5,29.84,North,-999,7.0,15.0,49,0.00,,,0.00,0.00,VWS V14.01,2013-08-24 04:56:00,
2013-08-23 23:01:00,71.9,51.7,29.84,North,-999,7.0,14.0,49,0.00,,,0.00,0.00,VWS V14.01,2013-08-24 05:01:00,
2013-08-23 23:06:00,71.9,51.7,29.84,North,-999,5.0,14.0,49,0.00,,,0.00,0.00,VWS V14.01,2013-08-24 05:06:00,
2013-08-23 23:11:00,71.9,51.7,29.84,North,-999,1.0,12.0,49,0.00,,,0.00,0.00,VWS V14.01,2013-08-24 05:11:00,
2013-08-23 23:16:00,71.7,51.5,29.84,North,-999,2.0,12.0,49,0.00,,,0.00,0.00,VWS V14.01,2013-08-24 05:16:00,
2013-08-23 23:21:00,71.5,51.9,29.84,North,-999,4.0,6.0,50,0.00,,,0.00,0.00,VWS V14.01,2013-08-24 05:21:00,
2013-08-23 23:26:00,71.4,51.8,29.84,North,-999,2.0,6.0,50,0.00,,,0.00,0.00,VWS V14.01,2013-08-24 05:26:00,
2013-08-23 23:31:00,71.4,51.8,29.83,North,-999,6.0,6.0,50,0.00,,,0.00,0.00,VWS V14.01,2013-08-24 05:31:00,
2013-08-23 23:36:00,71.4,51.3,29.83,North,-999,5.0,11.0,49,0.00,,,0.00,0.00,VWS V14.01,2013-08-24 05:36:00,
2013-08-23 23:41:00,71.5,51.4,29.84,North,-999,4.0,5.0,49,0.00,,,0.00,0.00,VWS V14.01,2013-08-24 05:41:00,
2013-08-23 23:46:00,70.3,52.4,29.84,North,-999,9.0,10.0,53,0.00,,,0.00,0.00,VWS V14.01,2013-08-24 05:46:00,
2013-08-23 23:51:00,69.3,52.0,29.84,North,-999,10.0,12.0,54,0.00,,,0.00,0.00,VWS V14.01,2013-08-24 05:51:00,
2013-08-23 23:56:00,68.6,52.8,29.84,North,-999,7.0,12.0,57,0.00,,,0.00,0.00,VWS V14.01,2013-08-24 05:56:00,